createdAt,value
2023-01-29T00:00:14.185Z,100890.00
2023-01-29T00:02:42.742Z,100899.78
2023-01-29T00:05:26.648Z,100898.25
2023-01-29T00:07:58.047Z,100911.03
2023-01-29T00:10:27.181Z,100911.25
2023-01-29T00:12:55.706Z,100917.66
2023-01-29T00:15:23.858Z,100908.09
2023-01-29T00:17:51.953Z,100914.53
2023-01-29T00:20:20.832Z,100924.47
2023-01-29T00:22:49.023Z,100918.44
2023-01-29T00:25:18.575Z,100916.94
2023-01-29T00:27:46.742Z,100925.91
2023-01-29T00:30:19.234Z,100922.47
2023-01-29T00:32:48.288Z,100920.09
2023-01-29T00:35:16.365Z,100926.53
2023-01-29T00:37:44.471Z,100931.13
2023-01-29T00:40:13.453Z,100928.00
2023-01-29T00:43:17.342Z,100926.16
2023-01-29T00:45:45.373Z,100929.88
2023-01-29T00:48:13.487Z,100930.09
2023-01-29T00:50:41.907Z,100934.13
2023-01-29T00:53:10.339Z,100938.44
2023-01-29T00:55:38.432Z,100946.56
2023-01-29T00:58:07.939Z,100947.75
2023-01-29T01:00:36.121Z,100945.16
2023-01-29T01:03:06.207Z,100930.41
2023-01-29T01:05:34.462Z,100942.84
2023-01-29T01:08:02.813Z,100939.41
2023-01-29T01:10:32.776Z,100937.91
2023-01-29T01:13:03.126Z,100936.19
2023-01-29T01:15:35.564Z,100944.28
2023-01-29T01:18:04.604Z,100937.31
2023-01-29T01:20:36.013Z,100943.84
2023-01-29T01:23:04.466Z,100947.47
2023-01-29T01:25:32.523Z,100951.19
2023-01-29T01:30:29.083Z,100949.78
2023-01-29T01:32:58.863Z,100955.13
2023-01-29T01:35:26.946Z,100956.16
2023-01-29T01:37:55.327Z,100953.59
2023-01-29T01:40:24.601Z,100953.78
2023-01-29T01:42:54.506Z,100951.19
2023-01-29T01:45:27.155Z,100957.63
2023-01-29T01:48:00.869Z,100960.47
2023-01-29T01:50:35.339Z,100960.66
2023-01-29T01:53:07.991Z,100959.91
2023-01-29T01:55:43.116Z,100960.06
2023-01-29T01:58:16.810Z,100950.41
2023-01-29T02:00:45.029Z,100958.56
2023-01-29T02:03:32.510Z,100955.09
2023-01-29T02:06:19.274Z,100956.16
2023-01-29T02:09:11.745Z,100953.56
2023-01-29T02:11:40.102Z,100967.16
2023-01-29T02:14:08.507Z,100972.59
2023-01-29T02:16:37.625Z,100967.34
2023-01-29T02:19:12.400Z,100961.56
2023-01-29T02:22:07.773Z,100972.19
2023-01-29T02:25:10.019Z,100979.47
2023-01-29T02:28:12.083Z,100973.50
2023-01-29T02:30:50.764Z,100980.59
2023-01-29T02:33:27.406Z,100986.97
2023-01-29T02:36:00.495Z,100973.75
2023-01-29T02:38:31.955Z,100986.28
2023-01-29T02:41:05.412Z,100986.56
2023-01-29T02:43:45.417Z,100979.66
2023-01-29T02:46:20.989Z,100992.00
2023-01-29T02:48:58.835Z,100990.38
2023-01-29T02:51:33.423Z,100994.97
2023-01-29T02:54:06.204Z,100994.16
2023-01-29T02:56:41.223Z,101002.41
2023-01-29T02:59:17.613Z,101007.75
2023-01-29T03:01:51.212Z,101006.03
2023-01-29T03:04:21.962Z,101004.50
2023-01-29T03:06:54.301Z,101001.00
2023-01-29T03:09:29.303Z,101005.50
2023-01-29T03:12:19.978Z,101008.28
2023-01-29T03:15:09.744Z,101008.38
2023-01-29T03:17:42.880Z,101003.31
2023-01-29T03:20:17.805Z,101011.34
2023-01-29T03:22:52.162Z,101009.56
2023-01-29T03:25:41.311Z,101013.31
2023-01-29T03:28:31.126Z,101019.69
2023-01-29T03:31:23.204Z,101019.78
2023-01-29T03:33:55.943Z,101018.13
2023-01-29T03:36:38.364Z,101024.44
2023-01-29T03:39:09.442Z,101029.78
2023-01-29T03:41:47.635Z,101023.75
2023-01-29T03:44:21.664Z,101025.56
2023-01-29T03:46:57.664Z,101035.50
2023-01-29T03:49:36.111Z,101033.78
2023-01-29T03:52:09.745Z,101030.41
2023-01-29T03:54:46.825Z,101028.78
2023-01-29T03:57:23.950Z,101025.16
2023-01-29T04:00:04.468Z,101024.38
2023-01-29T04:02:39.950Z,101016.59
2023-01-29T04:05:15.044Z,101026.28
2023-01-29T04:07:45.662Z,101015.72
2023-01-29T04:10:19.038Z,101018.50
2023-01-29T04:12:53.534Z,101015.03
2023-01-29T04:15:25.175Z,101021.25
2023-01-29T04:17:57.407Z,101026.78
2023-01-29T04:20:26.211Z,101023.25
2023-01-29T04:22:54.563Z,101023.34
2023-01-29T04:25:28.999Z,101026.06
2023-01-29T04:28:06.221Z,101018.31
2023-01-29T04:30:46.889Z,101016.41
2023-01-29T04:33:32.589Z,101012.09
2023-01-29T04:36:15.092Z,101018.31
2023-01-29T04:38:55.591Z,101014.00
2023-01-29T04:41:27.072Z,101023.69
2023-01-29T04:44:01.573Z,101026.03
2023-01-29T04:46:36.797Z,101021.06
2023-01-29T04:49:19.340Z,101023.22
2023-01-29T04:51:57.322Z,101017.38
2023-01-29T04:54:35.715Z,101019.38
2023-01-29T04:57:10.399Z,101026.84
2023-01-29T04:59:43.854Z,101033.22
2023-01-29T05:02:13.762Z,101021.97
2023-01-29T05:04:46.658Z,101023.09
2023-01-29T05:07:20.154Z,101017.19
2023-01-29T05:09:49.576Z,101016.66
2023-01-29T05:12:19.011Z,101015.25
2023-01-29T05:14:50.381Z,101019.94
2023-01-29T05:17:21.576Z,101023.78
2023-01-29T05:19:52.306Z,101022.16
2023-01-29T05:22:22.827Z,101011.63
2023-01-29T05:24:51.531Z,101020.81
2023-01-29T05:27:40.018Z,101013.00
2023-01-29T05:30:10.345Z,101011.34
2023-01-29T05:32:39.747Z,101017.09
2023-01-29T05:35:09.684Z,101015.69
2023-01-29T05:37:37.741Z,101007.41
2023-01-29T05:40:18.107Z,101014.00
2023-01-29T05:42:46.588Z,101012.84
2023-01-29T05:45:14.746Z,101014.47
2023-01-29T05:47:42.875Z,101016.75
2023-01-29T05:50:13.966Z,101009.44
2023-01-29T05:52:42.605Z,101021.72
2023-01-29T05:55:11.519Z,101016.16
2023-01-29T05:57:41.421Z,101020.44
2023-01-29T06:00:13.084Z,101020.91
2023-01-29T06:02:41.895Z,101023.22
2023-01-29T06:05:11.884Z,101019.34
2023-01-29T06:07:45.110Z,101022.59
2023-01-29T06:10:15.126Z,101024.66
2023-01-29T06:12:45.238Z,101031.56
2023-01-29T06:15:15.392Z,101031.78
2023-01-29T06:17:44.105Z,101039.53
2023-01-29T06:20:15.475Z,101048.16
2023-01-29T06:22:43.900Z,101047.75
2023-01-29T06:25:11.993Z,101046.25
2023-01-29T06:27:40.265Z,101050.34
2023-01-29T06:30:10.374Z,101049.19
2023-01-29T06:32:38.639Z,101056.00
2023-01-29T06:35:07.708Z,101068.47
2023-01-29T06:37:37.514Z,101067.63
2023-01-29T06:40:06.663Z,101073.00
2023-01-29T06:42:36.358Z,101085.69
2023-01-29T06:45:06.296Z,101077.91
2023-01-29T06:47:34.327Z,101082.53
2023-01-29T06:50:03.332Z,101075.06
2023-01-29T06:52:31.625Z,101084.00
2023-01-29T06:55:01.005Z,101088.84
2023-01-29T06:57:30.694Z,101081.94
2023-01-29T06:59:59.723Z,101084.06
2023-01-29T07:02:28.041Z,101089.63
2023-01-29T07:04:56.139Z,101082.00
2023-01-29T07:07:24.251Z,101079.81
2023-01-29T07:09:52.583Z,101081.88
2023-01-29T07:12:22.146Z,101077.75
2023-01-29T07:14:50.211Z,101079.03
2023-01-29T07:17:18.305Z,101088.44
2023-01-29T07:19:46.587Z,101080.78
2023-01-29T07:22:14.808Z,101068.78
2023-01-29T07:24:43.128Z,101064.50
2023-01-29T07:27:11.537Z,101073.72
2023-01-29T07:29:41.231Z,101067.03
2023-01-29T07:32:09.299Z,101062.88
2023-01-29T07:34:37.381Z,101066.75
2023-01-29T07:37:06.261Z,101062.63
2023-01-29T07:39:34.661Z,101059.38
2023-01-29T07:42:03.479Z,101046.41
2023-01-29T07:44:31.579Z,101054.34
2023-01-29T07:47:01.031Z,101055.16
2023-01-29T07:49:29.141Z,101050.38
2023-01-29T07:51:57.360Z,101049.19
2023-01-29T07:54:25.497Z,101066.44
2023-01-29T07:56:53.603Z,101066.91
2023-01-29T07:59:21.695Z,101058.47
2023-01-29T08:01:49.869Z,101059.88
2023-01-29T08:04:19.373Z,101062.19
2023-01-29T08:06:47.432Z,101065.50
2023-01-29T08:09:15.883Z,101062.94
2023-01-29T08:11:44.133Z,101068.88
2023-01-29T08:14:12.285Z,101072.50
2023-01-29T08:16:40.380Z,101065.41
2023-01-29T08:19:08.483Z,101066.59
2023-01-29T08:21:37.929Z,101075.59
2023-01-29T08:24:07.279Z,101072.16
2023-01-29T08:26:35.441Z,101073.31
2023-01-29T08:29:03.618Z,101073.63
2023-01-29T08:31:31.877Z,101080.91
2023-01-29T08:33:59.998Z,101082.91
2023-01-29T08:36:28.167Z,101081.41
2023-01-29T08:38:57.607Z,101087.06
2023-01-29T08:41:25.706Z,101095.31
2023-01-29T08:43:53.734Z,101099.25
2023-01-29T08:46:21.837Z,101095.03
2023-01-29T08:48:49.944Z,101099.75
2023-01-29T08:51:18.586Z,101104.44
2023-01-29T08:53:46.792Z,101123.38
2023-01-29T08:56:17.407Z,101112.25
2023-01-29T08:58:45.564Z,101115.91
2023-01-29T09:01:15.248Z,101119.75
2023-01-29T09:03:44.503Z,101115.72
2023-01-29T09:06:13.959Z,101120.31
2023-01-29T09:08:42.659Z,101118.75
2023-01-29T09:11:11.234Z,101130.66
2023-01-29T09:13:40.672Z,101131.78
2023-01-29T09:16:09.303Z,101130.44
2023-01-29T09:18:40.929Z,101120.56
2023-01-29T09:21:09.366Z,101122.56
2023-01-29T09:23:38.088Z,101131.75
2023-01-29T09:26:08.118Z,101132.88
2023-01-29T09:28:36.503Z,101126.75
2023-01-29T09:31:06.923Z,101132.50
2023-01-29T09:33:35.027Z,101133.44
2023-01-29T09:36:04.561Z,101133.63
2023-01-29T09:38:32.754Z,101135.53
2023-01-29T09:41:10.767Z,101138.13
2023-01-29T09:43:47.163Z,101133.44
2023-01-29T09:46:24.522Z,101141.97
2023-01-29T09:49:01.296Z,101139.59
2023-01-29T09:51:35.146Z,101142.41
2023-01-29T09:54:14.546Z,101143.50
2023-01-29T09:56:44.673Z,101130.47
2023-01-29T09:59:15.276Z,101124.72
2023-01-29T10:01:55.976Z,101134.72
2023-01-29T10:04:40.737Z,101130.69
2023-01-29T10:07:32.815Z,101136.44
2023-01-29T10:10:20.683Z,101129.75
2023-01-29T10:12:59.657Z,101135.09
2023-01-29T10:15:44.068Z,101146.25
2023-01-29T10:18:34.591Z,101146.53
2023-01-29T10:21:15.942Z,101141.41
2023-01-29T10:23:50.130Z,101135.25
2023-01-29T10:26:22.265Z,101125.41
2023-01-29T10:28:53.465Z,101134.69
2023-01-29T10:31:27.821Z,101132.16
2023-01-29T10:34:03.125Z,101121.97
2023-01-29T10:36:37.895Z,101133.81
2023-01-29T10:39:06.347Z,101129.84
2023-01-29T10:41:55.780Z,101137.50
2023-01-29T10:44:38.600Z,101126.75
2023-01-29T10:47:30.558Z,101126.22
2023-01-29T10:50:16.632Z,101120.19
2023-01-29T10:52:58.669Z,101109.09
2023-01-29T10:55:43.151Z,101110.28
2023-01-29T10:58:20.567Z,101103.81
2023-01-29T11:00:53.520Z,101104.47
2023-01-29T11:03:28.634Z,101091.22
2023-01-29T11:06:11.627Z,101092.00
2023-01-29T11:08:44.615Z,101097.47
2023-01-29T11:11:14.981Z,101099.50
2023-01-29T11:13:47.708Z,101097.16
2023-01-29T11:16:15.958Z,101096.50
2023-01-29T11:18:52.717Z,101085.09
2023-01-29T11:21:22.993Z,101072.81
2023-01-29T11:23:51.284Z,101072.16
2023-01-29T11:26:22.303Z,101078.75
2023-01-29T11:28:51.503Z,101070.75
2023-01-29T11:31:23.756Z,101069.72
2023-01-29T11:33:55.701Z,101060.53
2023-01-29T11:36:33.990Z,101052.34
2023-01-29T11:39:21.415Z,101047.94
2023-01-29T11:41:54.110Z,101055.28
2023-01-29T11:44:28.922Z,101039.25
2023-01-29T11:46:59.874Z,101042.03
2023-01-29T11:49:34.917Z,101037.94
2023-01-29T11:52:06.420Z,101009.84
2023-01-29T11:54:39.413Z,101025.56
2023-01-29T11:57:24.414Z,101023.50
2023-01-29T11:59:54.382Z,101015.78
2023-01-29T12:02:28.198Z,101023.09
2023-01-29T12:04:57.680Z,101017.91
2023-01-29T12:07:27.626Z,101017.53
2023-01-29T12:09:58.484Z,101026.50
2023-01-29T12:12:41.613Z,101017.75
2023-01-29T12:15:20.034Z,101016.03
2023-01-29T12:18:07.188Z,101017.22
2023-01-29T12:20:41.432Z,101013.97
2023-01-29T12:23:25.092Z,101014.28
2023-01-29T12:26:01.799Z,101016.13
2023-01-29T12:28:45.780Z,101012.47
2023-01-29T12:31:25.325Z,101005.78
2023-01-29T12:34:01.264Z,101004.53
2023-01-29T12:36:34.616Z,101005.91
2023-01-29T12:39:03.876Z,101010.88
2023-01-29T12:41:42.996Z,101014.16
2023-01-29T12:44:16.990Z,101006.72
2023-01-29T12:46:50.510Z,101006.09
2023-01-29T12:49:23.543Z,101010.09
2023-01-29T12:51:59.108Z,101003.28
2023-01-29T12:54:36.373Z,100999.19
2023-01-29T12:57:09.765Z,101009.66
2023-01-29T12:59:43.904Z,101003.69
2023-01-29T13:02:24.638Z,100992.72
2023-01-29T13:05:00.410Z,100997.44
2023-01-29T13:07:33.599Z,100993.31
2023-01-29T13:10:09.229Z,100984.81
2023-01-29T13:12:40.296Z,100986.84
2023-01-29T13:15:22.843Z,100970.44
2023-01-29T13:17:55.598Z,100972.47
2023-01-29T13:20:29.998Z,100971.03
2023-01-29T13:23:05.729Z,100959.88
2023-01-29T13:25:35.252Z,100955.94
2023-01-29T13:28:04.091Z,100951.09
2023-01-29T13:30:35.194Z,100947.19
2023-01-29T13:33:12.866Z,100936.81
2023-01-29T13:35:46.137Z,100943.34
2023-01-29T13:38:26.617Z,100949.09
2023-01-29T13:41:01.751Z,100944.56
2023-01-29T13:43:35.355Z,100958.56
2023-01-29T13:46:10.800Z,100952.19
2023-01-29T13:48:48.188Z,100958.31
2023-01-29T13:51:21.272Z,100962.03
2023-01-29T13:53:55.028Z,100957.16
2023-01-29T13:56:44.153Z,100959.88
2023-01-29T13:59:23.368Z,100950.34
2023-01-29T14:02:04.514Z,100940.44
2023-01-29T14:04:34.212Z,100947.91
2023-01-29T14:07:04.217Z,100946.13
2023-01-29T14:10:04.917Z,100949.19
2023-01-29T14:12:54.405Z,100953.47
2023-01-29T14:15:34.499Z,100966.50
2023-01-29T14:18:15.790Z,100961.22
2023-01-29T14:20:55.248Z,100958.72
2023-01-29T14:23:30.023Z,100961.81
2023-01-29T14:25:59.978Z,100960.59
2023-01-29T14:28:31.866Z,100961.31
2023-01-29T14:31:00.729Z,100965.72
2023-01-29T14:33:34.981Z,100949.88
2023-01-29T14:36:07.213Z,100966.09
2023-01-29T14:38:36.327Z,100974.44
2023-01-29T14:41:20.687Z,100966.81
2023-01-29T14:43:50.441Z,100966.97
2023-01-29T14:46:43.336Z,100965.38
2023-01-29T14:49:11.985Z,100962.06
2023-01-29T14:51:44.422Z,100962.56
2023-01-29T14:54:22.551Z,100963.88
2023-01-29T14:56:59.085Z,100974.22
2023-01-29T14:59:34.149Z,100969.28
2023-01-29T15:02:06.519Z,100963.63
2023-01-29T15:04:42.228Z,100964.75
2023-01-29T15:07:23.088Z,100960.72
2023-01-29T15:10:13.268Z,100962.91
2023-01-29T15:12:49.771Z,100966.91
2023-01-29T15:15:27.425Z,100962.25
2023-01-29T15:18:02.855Z,100964.56
2023-01-29T15:20:33.905Z,100953.88
2023-01-29T15:23:04.741Z,100952.38
2023-01-29T15:25:37.730Z,100950.25
2023-01-29T15:28:10.233Z,100944.59
2023-01-29T15:30:40.138Z,100949.63
2023-01-29T15:33:11.617Z,100942.56
2023-01-29T15:35:41.878Z,100956.16
2023-01-29T15:38:18.447Z,100962.97
2023-01-29T15:40:53.475Z,100955.72
2023-01-29T15:43:23.568Z,100960.47
2023-01-29T15:45:55.042Z,100966.97
2023-01-29T15:48:35.694Z,100958.44
2023-01-29T15:51:07.363Z,100966.63
2023-01-29T15:53:39.200Z,100967.63
2023-01-29T15:56:10.195Z,100968.06
2023-01-29T15:58:40.352Z,100969.16
2023-01-29T16:01:12.049Z,100966.78
2023-01-29T16:03:41.428Z,100968.84
2023-01-29T16:06:09.595Z,100967.13
2023-01-29T16:08:40.647Z,100976.41
2023-01-29T16:11:11.132Z,100972.31
2023-01-29T16:13:43.256Z,100975.03
2023-01-29T16:16:26.503Z,100973.53
2023-01-29T16:19:00.521Z,100971.03
2023-01-29T16:21:34.113Z,100970.53
2023-01-29T16:24:07.492Z,100972.44
2023-01-29T16:26:38.771Z,100982.72
2023-01-29T16:29:09.108Z,100979.47
2023-01-29T16:31:39.856Z,100985.31
2023-01-29T16:34:11.143Z,100986.94
2023-01-29T16:36:45.372Z,100992.84
2023-01-29T16:39:20.072Z,101001.47
2023-01-29T16:42:20.402Z,101002.09
2023-01-29T16:44:52.912Z,101003.59
2023-01-29T16:47:28.474Z,100997.00
2023-01-29T16:49:57.904Z,101008.19
2023-01-29T16:52:28.773Z,101003.22
2023-01-29T16:55:03.339Z,101006.22
2023-01-29T16:57:34.601Z,101005.78
2023-01-29T17:00:15.810Z,100999.09
2023-01-29T17:02:45.816Z,101007.47
2023-01-29T17:05:24.000Z,101013.25
2023-01-29T17:07:53.151Z,101012.59
2023-01-29T17:10:23.040Z,101002.03
2023-01-29T17:12:57.301Z,101001.84
2023-01-29T17:15:36.232Z,101003.38
2023-01-29T17:18:17.614Z,100999.31
2023-01-29T17:20:46.172Z,100994.16
2023-01-29T17:23:14.801Z,100983.00
2023-01-29T17:25:43.877Z,100987.66
2023-01-29T17:28:13.899Z,100983.53
2023-01-29T17:30:44.647Z,100989.09
2023-01-29T17:33:16.844Z,100975.88
2023-01-29T17:35:46.529Z,100974.88
2023-01-29T17:38:25.929Z,100965.19
2023-01-29T17:40:59.177Z,100972.69
2023-01-29T17:43:27.677Z,100972.88
2023-01-29T17:45:56.101Z,100966.59
2023-01-29T17:48:27.876Z,100963.16
2023-01-29T17:50:58.543Z,100962.97
2023-01-29T17:53:43.276Z,100964.78
2023-01-29T17:56:18.205Z,100949.50
2023-01-29T17:58:47.195Z,100950.44
2023-01-29T18:01:15.698Z,100941.88
2023-01-29T18:03:45.640Z,100939.34
2023-01-29T18:06:24.179Z,100944.13
2023-01-29T18:08:52.817Z,100946.59
2023-01-29T18:11:21.207Z,100943.56
2023-01-29T18:13:49.643Z,100937.56
2023-01-29T18:16:18.869Z,100946.13
2023-01-29T18:18:48.929Z,100940.72
2023-01-29T18:21:17.530Z,100930.19
2023-01-29T18:23:46.057Z,100938.16
2023-01-29T18:26:17.394Z,100931.91
2023-01-29T18:28:45.844Z,100939.03
2023-01-29T18:31:14.599Z,100937.06
2023-01-29T18:33:43.232Z,100928.00
2023-01-29T18:36:12.995Z,100934.88
2023-01-29T18:38:41.493Z,100927.66
2023-01-29T18:41:11.564Z,100928.00
2023-01-29T18:43:41.670Z,100925.66
2023-01-29T18:46:10.735Z,100926.13
2023-01-29T18:48:41.598Z,100917.75
2023-01-29T18:51:12.224Z,100934.56
2023-01-29T18:53:41.287Z,100936.97
2023-01-29T18:56:10.905Z,100927.88
2023-01-29T18:58:40.156Z,100934.06
2023-01-29T19:01:11.932Z,100926.69
2023-01-29T19:03:41.644Z,100935.06
2023-01-29T19:06:12.942Z,100938.44
2023-01-29T19:08:42.967Z,100941.81
2023-01-29T19:11:12.666Z,100935.16
2023-01-29T19:13:42.832Z,100937.56
2023-01-29T19:16:13.513Z,100925.63
2023-01-29T19:18:42.482Z,100930.94
2023-01-29T19:21:14.477Z,100932.25
2023-01-29T19:23:43.495Z,100928.38
2023-01-29T19:26:12.157Z,100923.66
2023-01-29T19:28:42.134Z,100926.81
2023-01-29T19:31:11.403Z,100921.41
2023-01-29T19:33:40.731Z,100927.13
2023-01-29T19:36:09.969Z,100930.31
2023-01-29T19:38:40.065Z,100926.34
2023-01-29T19:41:08.595Z,100923.22
2023-01-29T19:43:38.243Z,100913.75
2023-01-29T19:46:07.510Z,100909.03
2023-01-29T19:48:36.363Z,100908.38
2023-01-29T19:51:08.447Z,100918.34
2023-01-29T19:53:39.526Z,100906.13
2023-01-29T19:56:10.071Z,100920.00
2023-01-29T19:58:39.281Z,100923.09
2023-01-29T20:01:15.579Z,100915.59
2023-01-29T20:03:46.512Z,100933.09
2023-01-29T20:06:17.132Z,100922.91
2023-01-29T20:08:47.338Z,100914.41
2023-01-29T20:11:16.556Z,100924.56
2023-01-29T20:13:48.871Z,100911.84
2023-01-29T20:16:17.685Z,100918.31
2023-01-29T20:18:46.252Z,100910.66
2023-01-29T20:21:16.791Z,100901.50
2023-01-29T20:23:46.577Z,100903.84
2023-01-29T20:26:16.851Z,100903.84
2023-01-29T20:28:47.776Z,100897.59
2023-01-29T20:31:17.190Z,100890.75
2023-01-29T20:33:45.972Z,100896.25
2023-01-29T20:36:15.094Z,100896.56
2023-01-29T20:38:43.725Z,100897.00
2023-01-29T20:41:15.308Z,100884.75
2023-01-29T20:43:43.888Z,100882.38
2023-01-29T20:46:13.115Z,100887.19
2023-01-29T20:48:49.090Z,100893.09
2023-01-29T20:51:18.698Z,100887.31
2023-01-29T20:53:48.638Z,100890.19
2023-01-29T20:56:18.881Z,100898.78
2023-01-29T20:59:08.310Z,100894.84
2023-01-29T21:01:36.683Z,100898.91
2023-01-29T21:04:05.075Z,100898.47
2023-01-29T21:06:33.568Z,100910.28
2023-01-29T21:09:01.957Z,100905.31
2023-01-29T21:11:33.409Z,100909.31
2023-01-29T21:14:01.989Z,100914.13
2023-01-29T21:16:30.752Z,100912.84
2023-01-29T21:18:59.826Z,100908.94
2023-01-29T21:21:28.434Z,100916.22
2023-01-29T21:23:56.488Z,100920.31
2023-01-29T21:26:25.126Z,100929.50
2023-01-29T21:28:55.963Z,100926.28
2023-01-29T21:31:24.365Z,100922.16
2023-01-29T21:33:52.787Z,100920.66
2023-01-29T21:36:21.081Z,100920.16
2023-01-29T21:38:49.188Z,100922.28
2023-01-29T21:41:17.301Z,100921.81
2023-01-29T21:43:45.112Z,100922.97
2023-01-29T21:46:16.107Z,100918.00
2023-01-29T21:48:44.663Z,100921.78
2023-01-29T21:51:13.302Z,100915.72
2023-01-29T21:53:41.361Z,100911.63
2023-01-29T21:56:09.599Z,100917.28
2023-01-29T21:58:37.715Z,100917.59
2023-01-29T22:01:36.114Z,100908.84
2023-01-29T22:03:57.090Z,100904.00
2023-01-29T22:06:25.980Z,100900.53
2023-01-29T22:08:54.073Z,100896.34
2023-01-29T22:11:22.495Z,100891.25
2023-01-29T22:13:50.599Z,100894.03
2023-01-29T22:16:18.672Z,100880.06
2023-01-29T22:18:46.877Z,100882.16
2023-01-29T22:21:16.521Z,100878.72
2023-01-29T22:23:45.267Z,100879.09
2023-01-29T22:26:13.334Z,100872.13
2023-01-29T22:28:41.434Z,100866.00
2023-01-29T22:31:09.742Z,100858.44
2023-01-29T22:33:37.946Z,100866.47
2023-01-29T22:36:06.800Z,100855.19
2023-01-29T22:38:36.412Z,100861.50
2023-01-29T22:41:05.485Z,100856.44
2023-01-29T22:43:33.742Z,100855.66
2023-01-29T22:46:01.891Z,100852.28
2023-01-29T22:48:30.588Z,100841.97
2023-01-29T22:51:09.959Z,100846.56
2023-01-29T22:53:41.390Z,100838.78
2023-01-29T22:56:10.465Z,100844.22
2023-01-29T22:58:41.098Z,100839.06
2023-01-29T23:01:10.349Z,100843.75
2023-01-29T23:03:38.473Z,100840.31
2023-01-29T23:06:06.698Z,100845.84
2023-01-29T23:08:34.836Z,100846.88
2023-01-29T23:11:15.014Z,100834.66
2023-01-29T23:13:44.524Z,100840.19
2023-01-29T23:16:13.120Z,100835.97
2023-01-29T23:18:41.791Z,100831.75
2023-01-29T23:21:10.776Z,100836.16
2023-01-29T23:23:39.580Z,100837.22
2023-01-29T23:26:28.776Z,100826.75
2023-01-29T23:28:57.018Z,100823.31
2023-01-29T23:31:25.795Z,100825.25
2023-01-29T23:33:53.946Z,100813.06
2023-01-29T23:36:22.068Z,100815.75
2023-01-29T23:38:50.255Z,100813.16
2023-01-29T23:41:19.888Z,100814.31
2023-01-29T23:43:47.951Z,100808.19
2023-01-29T23:46:16.134Z,100804.84
2023-01-29T23:48:44.563Z,100803.31
2023-01-29T23:51:12.656Z,100805.19
2023-01-29T23:53:41.206Z,100797.44
2023-01-29T23:56:09.361Z,100809.97
2023-01-29T23:58:39.158Z,100803.75
